Time;durP1;ratioP1;P1;durP2;ratioP2;P2;SDS_P1;SDS_P2;PMS_P1;PMS_P2;Temp;Humidity;BMP_temperature;BMP_pressure;BME280_temperature;BME280_humidity;BME280_pressure;Samples;Min_cycle;Max_cycle;Signal;HPM_P1;HPM_P2
2023/04/13 00:00:28;;;;;;;7.63;3.83;;;4.60;99.90;;;;;;4985703;28;20052;-64
2023/04/13 00:02:54;;;;;;;7.30;4.20;;;4.70;99.90;;;;;;5002630;28;20034;-65
2023/04/13 00:05:22;;;;;;;7.30;3.95;;;4.70;99.90;;;;;;4988795;28;20061;-65
2023/04/13 00:07:48;;;;;;;7.45;4.57;;;4.80;99.90;;;;;;4993047;28;20046;-65
2023/04/13 00:10:17;;;;;;;7.00;4.13;;;4.80;99.90;;;;;;4990874;28;20077;-65
2023/04/13 00:12:46;;;;;;;6.97;4.13;;;4.80;99.90;;;;;;4994094;28;20053;-64
2023/04/13 00:15:14;;;;;;;5.60;4.38;;;4.90;99.90;;;;;;4987745;28;20074;-65
2023/04/13 00:17:41;;;;;;;8.60;4.63;;;4.90;99.90;;;;;;4986429;28;20038;-65
2023/04/13 00:20:13;;;;;;;5.57;3.90;;;5.00;99.90;;;;;;4975062;28;20509;-66
2023/04/13 00:22:44;;;;;;;6.22;3.53;;;5.10;99.90;;;;;;5008711;28;20034;-66
2023/04/13 00:25:13;;;;;;;6.25;3.90;;;5.20;99.90;;;;;;4987390;28;20046;-66
2023/04/13 00:27:39;;;;;;;6.50;4.25;;;5.30;99.90;;;;;;4988893;28;20121;-66
2023/04/13 00:30:13;;;;;;;5.57;3.63;;;5.40;99.90;;;;;;5013819;28;20036;-66
2023/04/13 00:32:41;;;;;;;6.05;4.10;;;5.40;99.90;;;;;;4988082;28;20064;-66
2023/04/13 00:35:11;;;;;;;4.30;3.80;;;5.50;99.90;;;;;;4979093;28;20136;-67
2023/04/13 00:37:37;;;;;;;;;;;5.50;99.90;;;;;;4984360;28;20470;-67
2023/04/13 00:40:07;;;;;;;5.53;3.33;;;5.50;99.90;;;;;;4991783;28;19918;-66
2023/04/13 00:42:33;;;;;;;;;;;5.60;99.90;;;;;;4992665;28;20077;-64
2023/04/13 00:44:59;;;;;;;7.75;3.38;;;5.70;99.90;;;;;;5007210;28;20452;-66
2023/04/13 00:47:31;;;;;;;5.32;3.55;;;5.70;99.90;;;;;;4990500;28;20111;-66
2023/04/13 00:49:59;;;;;;;5.20;3.70;;;5.80;99.90;;;;;;4991371;28;20038;-65
2023/04/13 00:52:25;;;;;;;4.60;3.33;;;5.90;99.90;;;;;;4975632;28;20069;-66
2023/04/13 00:54:51;;;;;;;5.40;3.20;;;6.00;99.90;;;;;;5008132;28;20034;-66
2023/04/13 00:57:18;;;;;;;5.25;3.85;;;5.90;99.90;;;;;;4992264;28;20104;-66
2023/04/13 00:59:46;;;;;;;6.30;3.55;;;5.80;99.90;;;;;;4991217;28;20045;-67
2023/04/13 01:02:12;;;;;;;5.68;3.60;;;5.80;99.90;;;;;;4991381;28;20049;-67
2023/04/13 01:04:38;;;;;;;4.32;3.40;;;5.60;99.90;;;;;;4977244;28;20038;-65
2023/04/13 01:07:27;;;;;;;5.40;3.65;;;5.60;99.90;;;;;;4973681;28;20040;-66
2023/04/13 01:10:18;;;;;;;5.40;3.50;;;5.40;99.90;;;;;;4987457;28;20052;-68
2023/04/13 01:13:05;;;;;;;5.70;3.75;;;5.30;99.90;;;;;;4981863;28;20033;-68
2023/04/13 01:15:36;;;;;;;5.50;3.85;;;5.30;99.90;;;;;;4997646;28;20034;-64
2023/04/13 01:18:07;;;;;;;4.63;3.15;;;5.30;99.90;;;;;;5012750;28;20053;-64
2023/04/13 01:20:36;;;;;;;6.05;3.40;;;5.30;99.90;;;;;;4975621;28;20049;-65
2023/04/13 01:23:08;;;;;;;4.80;2.90;;;5.20;99.90;;;;;;4989210;28;20144;-68
2023/04/13 01:25:40;;;;;;;4.68;2.80;;;5.20;99.90;;;;;;4992968;28;20045;-67
2023/04/13 01:28:18;;;;;;;4.80;3.00;;;5.20;99.90;;;;;;4994166;28;20050;-65
2023/04/13 01:30:45;;;;;;;7.63;3.08;;;5.10;99.90;;;;;;4987679;28;20038;-67
2023/04/13 01:33:12;;;;;;;5.80;2.85;;;5.10;99.90;;;;;;4994327;28;20046;-66
2023/04/13 01:35:38;;;;;;;4.47;2.97;;;5.10;99.90;;;;;;5009517;28;20363;-65
2023/04/13 01:38:07;;;;;;;5.60;2.88;;;5.10;99.90;;;;;;5009075;28;20128;-66
2023/04/13 01:40:40;;;;;;;4.78;3.25;;;5.10;99.90;;;;;;4986019;28;20042;-66
2023/04/13 01:43:07;;;;;;;5.82;2.50;;;5.10;99.90;;;;;;4961961;28;20034;-68
2023/04/13 01:45:46;;;;;;;3.10;2.03;;;5.10;99.90;;;;;;5007723;28;20053;-66
2023/04/13 01:48:23;;;;;;;4.57;2.30;;;5.10;99.90;;;;;;4992235;28;20046;-66
2023/04/13 01:51:18;;;;;;;4.32;2.30;;;5.10;99.90;;;;;;4982417;28;20036;-66
2023/04/13 01:53:49;;;;;;;3.80;2.40;;;5.00;99.90;;;;;;4985317;28;20053;-66
2023/04/13 01:56:18;;;;;;;3.25;2.00;;;5.00;99.90;;;;;;4984562;28;20038;-64
2023/04/13 01:58:46;;;;;;;4.72;2.28;;;5.10;99.90;;;;;;5022660;28;20084;-67
2023/04/13 02:01:13;;;;;;;6.78;2.53;;;5.10;99.90;;;;;;5004115;28;22408;-67
2023/04/13 02:03:38;;;;;;;5.18;2.25;;;5.10;99.90;;;;;;5008368;28;20041;-67
2023/04/13 02:06:06;;;;;;;5.45;1.92;;;5.10;99.90;;;;;;4995430;28;20045;-66
2023/04/13 02:08:31;;;;;;;5.32;2.33;;;5.10;99.90;;;;;;5002460;28;20084;-68
2023/04/13 02:10:57;;;;;;;4.20;2.60;;;5.10;99.90;;;;;;4998653;28;20061;-67
2023/04/13 02:13:24;;;;;;;6.10;2.15;;;5.10;99.90;;;;;;5000037;28;20076;-67
2023/04/13 02:15:49;;;;;;;4.78;2.33;;;5.10;99.90;;;;;;4997112;28;20144;-66
2023/04/13 02:18:15;;;;;;;7.50;2.20;;;5.10;99.90;;;;;;5017279;28;20120;-67
2023/04/13 02:20:43;;;;;;;7.65;2.60;;;5.10;99.90;;;;;;4995875;28;20477;-69
2023/04/13 02:23:16;;;;;;;9.13;2.60;;;5.10;99.90;;;;;;5000447;28;20033;-65
2023/04/13 02:25:42;;;;;;;7.63;2.28;;;5.20;99.90;;;;;;5013446;28;20310;-66
2023/04/13 02:28:10;;;;;;;4.47;2.33;;;5.20;99.90;;;;;;5008058;28;20045;-66
2023/04/13 02:30:36;;;;;;;9.50;2.38;;;5.20;99.90;;;;;;5013494;28;20045;-67
2023/04/13 02:33:02;;;;;;;4.15;2.25;;;5.10;99.90;;;;;;5009209;28;20038;-67
2023/04/13 02:35:27;;;;;;;3.85;2.35;;;5.10;99.90;;;;;;5011527;28;20045;-65
2023/04/13 02:37:54;;;;;;;6.78;2.70;;;5.20;99.90;;;;;;4996599;28;20049;-67
2023/04/13 02:40:20;;;;;;;6.47;2.90;;;5.10;99.90;;;;;;5009236;28;20072;-66
2023/04/13 02:42:46;;;;;;;6.63;2.78;;;5.20;99.90;;;;;;4996407;28;20474;-67
2023/04/13 02:45:12;;;;;;;4.40;2.50;;;5.10;99.90;;;;;;5011916;28;20041;-66
2023/04/13 02:47:39;;;;;;;7.15;2.55;;;5.20;99.90;;;;;;5009143;28;20404;-67
2023/04/13 02:50:05;;;;;;;6.55;2.88;;;5.10;99.90;;;;;;5009920;28;20116;-67
2023/04/13 02:52:31;;;;;;;5.43;2.85;;;5.20;99.90;;;;;;4991901;28;20040;-68
2023/04/13 02:54:57;;;;;;;4.90;2.90;;;5.20;99.90;;;;;;5011641;28;20033;-67
2023/04/13 02:57:24;;;;;;;3.92;2.67;;;5.20;99.90;;;;;;5006763;28;20061;-66
2023/04/13 02:59:50;;;;;;;7.38;3.05;;;5.30;99.90;;;;;;5006921;28;20112;-65
2023/04/13 03:02:16;;;;;;;8.50;3.45;;;5.10;99.90;;;;;;5027088;28;20037;-66
2023/04/13 03:04:43;;;;;;;4.72;2.70;;;5.30;99.90;;;;;;5005130;28;20125;-66
2023/04/13 03:07:09;;;;;;;5.60;2.83;;;5.30;99.90;;;;;;5023659;28;20039;-67
2023/04/13 03:09:39;;;;;;;8.82;2.90;;;5.30;99.90;;;;;;4992311;28;20079;-65
2023/04/13 03:12:08;;;;;;;6.25;3.03;;;5.30;99.90;;;;;;5009705;28;20092;-67
2023/04/13 03:14:35;;;;;;;7.03;2.90;;;5.30;99.90;;;;;;5007006;28;20484;-65
2023/04/13 03:17:01;;;;;;;5.38;2.55;;;5.20;99.90;;;;;;5010826;28;20069;-66
2023/04/13 03:19:27;;;;;;;6.50;2.50;;;5.20;99.90;;;;;;4999858;28;20056;-64
2023/04/13 03:21:53;;;;;;;3.47;2.35;;;5.20;99.90;;;;;;5024554;28;20037;-66
2023/04/13 03:24:19;;;;;;;4.35;2.38;;;5.40;99.90;;;;;;5010127;28;20462;-65
2023/04/13 03:26:45;;;;;;;5.32;2.38;;;5.40;99.90;;;;;;5008400;28;20107;-65
2023/04/13 03:29:10;;;;;;;4.38;2.10;;;5.20;99.90;;;;;;5002840;28;20046;-65
2023/04/13 03:31:36;;;;;;;5.30;2.17;;;5.30;99.90;;;;;;5009849;28;20137;-65
2023/04/13 03:34:01;;;;;;;3.97;1.88;;;5.30;99.90;;;;;;4993643;28;20124;-65
2023/04/13 03:36:27;;;;;;;5.18;1.98;;;5.30;99.90;;;;;;5024989;28;20041;-66
2023/04/13 03:38:54;;;;;;;5.75;1.95;;;5.30;99.90;;;;;;5006503;28;20045;-65
2023/04/13 03:41:20;;;;;;;3.17;1.98;;;5.30;99.90;;;;;;5026076;28;20036;-65
2023/04/13 03:43:45;;;;;;;3.58;2.10;;;5.30;99.90;;;;;;5027333;28;20129;-65
2023/04/13 03:46:12;;;;;;;4.72;2.33;;;5.30;99.90;;;;;;5024027;28;20069;-64
2023/04/13 03:48:40;;;;;;;3.35;2.17;;;5.40;99.90;;;;;;4990737;28;20034;-64
2023/04/13 03:51:05;;;;;;;5.22;2.30;;;5.40;99.90;;;;;;5005133;28;20145;-65
2023/04/13 03:53:34;;;;;;;3.50;2.30;;;5.50;99.90;;;;;;4993577;28;20120;-64
2023/04/13 03:55:59;;;;;;;3.72;2.00;;;5.40;99.90;;;;;;5011056;28;20041;-66
2023/04/13 03:58:25;;;;;;;4.82;2.47;;;5.30;99.90;;;;;;5008079;28;20136;-65
2023/04/13 04:00:51;;;;;;;3.92;2.40;;;5.50;99.90;;;;;;5009555;28;20125;-65
2023/04/13 04:03:17;;;;;;;7.55;3.20;;;5.40;99.90;;;;;;5010316;28;20044;-65
2023/04/13 04:05:43;;;;;;;8.90;2.47;;;5.50;99.90;;;;;;5011037;28;20053;-66
2023/04/13 04:08:09;;;;;;;5.28;2.60;;;5.50;99.90;;;;;;5009009;28;20056;-66
2023/04/13 04:10:34;;;;;;;7.25;2.80;;;5.40;99.90;;;;;;5010758;28;20038;-65
2023/04/13 04:13:00;;;;;;;5.90;2.83;;;5.50;99.90;;;;;;5015704;28;20524;-63
2023/04/13 04:15:25;;;;;;;4.82;2.45;;;5.40;99.90;;;;;;5030659;28;20076;-64
2023/04/13 04:17:51;;;;;;;5.07;2.47;;;5.40;99.90;;;;;;5010466;28;20083;-66
2023/04/13 04:20:17;;;;;;;4.80;2.65;;;5.50;99.90;;;;;;5008982;28;20506;-65
2023/04/13 04:22:43;;;;;;;6.03;2.70;;;5.50;99.90;;;;;;5025733;28;20465;-65
2023/04/13 04:25:10;;;;;;;4.70;2.72;;;5.60;99.90;;;;;;5020454;28;20046;-64
2023/04/13 04:27:37;;;;;;;7.80;2.42;;;5.60;99.90;;;;;;5007026;28;20045;-64
2023/04/13 04:30:09;;;;;;;5.95;2.45;;;5.70;99.90;;;;;;5029633;28;20121;-65
2023/04/13 04:32:35;;;;;;;4.03;2.13;;;5.60;99.90;;;;;;5024942;28;20429;-64
2023/04/13 04:35:02;;;;;;;5.22;2.67;;;5.50;99.90;;;;;;5014372;28;20099;-64
2023/04/13 04:37:28;;;;;;;4.25;2.28;;;5.50;99.90;;;;;;5024962;28;20049;-64
2023/04/13 04:39:54;;;;;;;4.78;2.50;;;5.60;99.90;;;;;;5034198;28;20033;-65
2023/04/13 04:42:20;;;;;;;3.95;2.60;;;5.50;99.90;;;;;;5009648;28;20061;-64
2023/04/13 04:44:48;;;;;;;5.65;2.50;;;5.60;99.90;;;;;;5013493;28;20038;-64
2023/04/13 04:47:15;;;;;;;6.97;2.67;;;5.60;99.90;;;;;;5031503;28;20045;-64
2023/04/13 04:49:41;;;;;;;5.15;2.83;;;5.40;99.90;;;;;;5012333;28;20124;-65
2023/04/13 04:52:11;;;;;;;6.95;2.90;;;5.60;99.90;;;;;;5012154;28;20156;-65
2023/04/13 04:54:37;;;;;;;6.27;2.90;;;5.60;99.90;;;;;;5026946;28;20432;-64
2023/04/13 04:57:03;;;;;;;9.52;3.10;;;5.50;99.90;;;;;;5028149;28;20088;-64
2023/04/13 04:59:29;;;;;;;7.68;3.45;;;5.40;99.90;;;;;;5023873;28;20068;-67
2023/04/13 05:01:54;;;;;;;5.30;3.10;;;5.60;99.90;;;;;;5009319;28;20042;-65
2023/04/13 05:04:20;;;;;;;9.57;3.95;;;5.40;99.90;;;;;;5008228;28;20487;-65
2023/04/13 05:06:47;;;;;;;9.10;4.38;;;5.60;99.90;;;;;;5006661;28;20477;-63
2023/04/13 05:09:13;;;;;;;8.80;4.35;;;5.50;99.90;;;;;;5026986;28;20563;-66
2023/04/13 05:11:40;;;;;;;8.52;4.32;;;5.60;99.90;;;;;;5033342;28;20083;-65
2023/04/13 05:14:05;;;;;;;9.38;4.65;;;5.60;99.90;;;;;;4995876;28;20720;-64
2023/04/13 05:16:32;;;;;;;10.50;4.70;;;5.60;99.90;;;;;;4997032;28;20095;-66
2023/04/13 05:18:58;;;;;;;11.85;4.80;;;5.60;99.90;;;;;;5007423;28;20172;-66
2023/04/13 05:21:25;;;;;;;9.25;4.93;;;5.70;99.90;;;;;;5018633;28;20130;-65
2023/04/13 05:23:51;;;;;;;10.45;4.68;;;5.70;99.90;;;;;;5010111;28;20096;-63
2023/04/13 05:26:19;;;;;;;10.60;4.60;;;5.60;99.90;;;;;;4989308;28;20041;-64
2023/04/13 05:28:45;;;;;;;7.68;3.83;;;5.60;99.90;;;;;;4999948;28;20038;-65
2023/04/13 05:31:10;;;;;;;9.05;4.20;;;5.70;99.90;;;;;;5008708;28;20037;-65
2023/04/13 05:33:36;;;;;;;9.00;3.90;;;5.50;99.90;;;;;;5008534;28;20417;-66
2023/04/13 05:36:03;;;;;;;9.70;4.40;;;5.60;99.90;;;;;;5008818;28;20059;-65
2023/04/13 05:38:29;;;;;;;8.60;4.07;;;5.60;99.90;;;;;;5011311;28;20045;-65
2023/04/13 05:40:54;;;;;;;6.50;3.30;;;5.50;99.90;;;;;;5004378;28;20095;-65
2023/04/13 05:43:20;;;;;;;10.13;4.25;;;5.70;99.90;;;;;;5008544;28;20075;-64
2023/04/13 05:45:46;;;;;;;8.75;5.25;;;5.60;99.90;;;;;;5005378;28;20505;-64
2023/04/13 05:48:12;;;;;;;8.13;4.25;;;5.70;99.90;;;;;;5004407;28;20041;-66
2023/04/13 05:50:38;;;;;;;8.45;3.95;;;5.60;99.90;;;;;;5007291;28;20425;-66
2023/04/13 05:53:06;;;;;;;8.10;3.80;;;5.80;99.90;;;;;;5025009;28;20026;-66
2023/04/13 05:55:32;;;;;;;7.22;3.88;;;5.80;99.90;;;;;;5002801;28;20482;-66
2023/04/13 05:58:02;;;;;;;6.38;3.67;;;5.70;99.90;;;;;;5018064;28;20103;-66
2023/04/13 06:00:28;;;;;;;8.10;3.60;;;5.70;99.90;;;;;;5017970;28;20068;-67
2023/04/13 06:02:54;;;;;;;7.97;3.75;;;5.70;99.90;;;;;;5009906;28;20029;-65
2023/04/13 06:05:21;;;;;;;8.32;4.20;;;5.60;99.90;;;;;;5007043;28;20500;-66
2023/04/13 06:07:46;;;;;;;10.15;4.18;;;5.70;99.90;;;;;;5017796;28;20445;-66
2023/04/13 06:10:15;;;;;;;10.52;3.92;;;5.80;99.90;;;;;;5021556;28;20044;-66
2023/04/13 06:12:41;;;;;;;8.45;4.50;;;5.90;99.90;;;;;;5019818;28;20442;-65
2023/04/13 06:15:07;;;;;;;8.32;3.92;;;5.90;99.90;;;;;;5011108;28;20051;-67
2023/04/13 06:17:33;;;;;;;8.98;4.13;;;6.00;99.90;;;;;;5003747;28;20033;-66
2023/04/13 06:19:58;;;;;;;9.25;3.92;;;6.10;99.90;;;;;;5011461;28;20044;-67
2023/04/13 06:22:24;;;;;;;8.27;3.67;;;6.20;99.90;;;;;;5003502;28;20041;-65
2023/04/13 06:24:50;;;;;;;7.32;3.90;;;6.20;99.90;;;;;;4996399;28;20128;-66
2023/04/13 06:27:17;;;;;;;7.85;4.18;;;6.10;99.90;;;;;;5005681;28;20611;-66
2023/04/13 06:29:43;;;;;;;11.57;4.80;;;6.20;99.90;;;;;;5004332;28;20442;-66
2023/04/13 06:32:09;;;;;;;9.27;4.03;;;6.10;99.90;;;;;;5020609;28;20136;-66
2023/04/13 06:34:34;;;;;;;9.93;4.50;;;6.10;99.90;;;;;;5003143;28;20128;-66
2023/04/13 06:37:00;;;;;;;8.52;4.13;;;6.20;99.90;;;;;;4994246;28;20083;-67
2023/04/13 06:39:27;;;;;;;8.52;4.03;;;6.20;99.90;;;;;;5002805;28;20042;-67
2023/04/13 06:41:53;;;;;;;12.30;4.57;;;6.30;99.90;;;;;;5002450;28;20046;-67
2023/04/13 06:44:18;;;;;;;9.98;4.47;;;6.20;99.90;;;;;;5007524;28;20544;-67
2023/04/13 06:46:44;;;;;;;10.55;4.88;;;6.10;99.90;;;;;;5000682;28;20038;-65
2023/04/13 06:49:10;;;;;;;10.35;5.25;;;6.40;99.90;;;;;;5007915;28;20365;-68
2023/04/13 06:51:36;;;;;;;10.38;4.90;;;6.50;99.90;;;;;;5005643;28;20064;-68
2023/04/13 06:54:02;;;;;;;9.40;4.85;;;6.60;99.90;;;;;;5009763;28;20312;-66
2023/04/13 06:56:28;;;;;;;10.45;5.10;;;6.70;99.90;;;;;;5010904;28;20148;-65
2023/04/13 06:58:57;;;;;;;12.40;4.95;;;6.70;99.90;;;;;;5023535;28;20167;-67
2023/04/13 07:01:24;;;;;;;9.73;5.05;;;6.70;99.90;;;;;;5030305;28;20050;-67
2023/04/13 07:03:49;;;;;;;12.13;4.85;;;6.90;99.90;;;;;;5008622;28;20534;-69
2023/04/13 07:06:15;;;;;;;9.63;4.88;;;7.10;99.90;;;;;;5006025;28;20045;-69
2023/04/13 07:08:40;;;;;;;8.20;4.30;;;7.10;99.90;;;;;;5004990;28;20117;-66
2023/04/13 07:11:07;;;;;;;10.30;4.75;;;6.90;99.90;;;;;;4994169;28;20085;-66
2023/04/13 07:13:33;;;;;;;7.18;4.53;;;6.90;99.90;;;;;;4995750;28;20671;-66
2023/04/13 07:15:58;;;;;;;8.02;4.00;;;7.00;99.90;;;;;;5013699;28;20124;-67
2023/04/13 07:18:24;;;;;;;8.80;3.80;;;7.00;99.90;;;;;;4998243;28;20038;-68
2023/04/13 07:20:49;;;;;;;8.02;3.90;;;7.00;99.90;;;;;;4995917;28;20045;-67
2023/04/13 07:23:15;;;;;;;7.13;3.90;;;6.90;99.90;;;;;;4994251;28;20053;-65
2023/04/13 07:25:40;;;;;;;9.18;4.05;;;7.10;99.90;;;;;;4989335;28;20048;-67
2023/04/13 07:28:06;;;;;;;8.52;3.65;;;7.00;99.90;;;;;;5013709;28;20041;-67
2023/04/13 07:30:32;;;;;;;8.90;3.88;;;7.00;99.90;;;;;;5002106;28;20312;-66
2023/04/13 07:32:57;;;;;;;9.13;3.63;;;7.00;99.90;;;;;;5009913;28;20095;-66
2023/04/13 07:35:23;;;;;;;11.45;3.90;;;7.20;99.90;;;;;;5017754;28;20151;-67
2023/04/13 07:37:49;;;;;;;16.60;4.05;;;7.30;99.90;;;;;;5000347;28;20081;-68
2023/04/13 07:40:15;;;;;;;6.63;3.47;;;7.30;99.90;;;;;;5005415;28;20061;-64
2023/04/13 07:42:41;;;;;;;11.70;3.67;;;7.30;99.90;;;;;;5009433;28;20132;-67
2023/04/13 07:45:09;;;;;;;6.65;3.90;;;7.30;99.90;;;;;;5006845;28;20231;-67
2023/04/13 07:47:35;;;;;;;7.57;2.97;;;7.40;99.90;;;;;;5001794;28;20044;-66
2023/04/13 07:50:01;;;;;;;7.78;2.97;;;7.60;99.90;;;;;;5007842;28;20108;-65
2023/04/13 07:52:27;;;;;;;5.28;3.08;;;7.60;99.90;;;;;;5003887;28;20493;-66
2023/04/13 07:54:52;;;;;;;5.68;2.80;;;7.70;99.90;;;;;;5025102;28;20045;-66
2023/04/13 07:57:20;;;;;;;7.43;2.90;;;7.60;99.90;;;;;;5003082;28;20444;-66
2023/04/13 07:59:46;;;;;;;5.97;2.70;;;7.80;99.90;;;;;;4999201;28;20045;-64
2023/04/13 08:02:12;;;;;;;7.95;2.85;;;7.70;99.90;;;;;;4996568;28;20039;-66
2023/04/13 08:04:38;;;;;;;6.43;2.88;;;7.70;99.90;;;;;;4996068;28;20124;-65
2023/04/13 08:07:04;;;;;;;5.78;3.25;;;7.70;99.90;;;;;;5011078;28;20442;-64
2023/04/13 08:09:41;;;;;;;7.35;2.95;;;7.40;99.90;;;;;;5025423;28;20485;-65
2023/04/13 08:12:07;;;;;;;7.45;3.20;;;7.40;99.90;;;;;;5017869;28;20045;-66
2023/04/13 08:14:33;;;;;;;9.25;3.30;;;7.30;99.90;;;;;;5022725;28;20385;-66
2023/04/13 08:17:00;;;;;;;4.57;2.53;;;7.30;99.90;;;;;;5009002;28;20046;-67
2023/04/13 08:19:26;;;;;;;6.55;3.05;;;7.10;99.90;;;;;;5002294;28;20045;-67
2023/04/13 08:21:52;;;;;;;7.38;3.17;;;7.10;99.90;;;;;;5005872;28;20033;-66
2023/04/13 08:24:21;;;;;;;4.50;2.97;;;7.10;99.90;;;;;;5008485;28;20038;-67
2023/04/13 08:26:47;;;;;;;5.68;2.63;;;7.20;99.90;;;;;;5005121;28;20041;-67
2023/04/13 08:29:13;;;;;;;4.82;3.10;;;7.00;99.90;;;;;;5001400;28;20100;-66
2023/04/13 08:31:39;;;;;;;7.28;3.08;;;7.20;99.90;;;;;;4995510;28;20394;-66
2023/04/13 08:34:05;;;;;;;6.78;3.10;;;7.20;99.90;;;;;;5002676;28;20037;-67
2023/04/13 08:36:32;;;;;;;5.80;2.80;;;7.10;99.90;;;;;;5017726;28;20056;-66
2023/04/13 08:38:57;;;;;;;7.32;2.40;;;7.10;99.90;;;;;;4997958;28;20390;-65
2023/04/13 08:41:24;;;;;;;5.30;2.83;;;6.90;99.90;;;;;;5015416;28;20033;-65
2023/04/13 08:43:50;;;;;;;6.25;2.55;;;6.90;99.90;;;;;;5014750;28;20388;-66
2023/04/13 08:46:20;;;;;;;9.50;3.67;;;7.00;99.90;;;;;;5011697;28;20396;-68
2023/04/13 08:48:47;;;;;;;5.45;2.25;;;7.20;99.90;;;;;;5025690;28;20496;-66
2023/04/13 08:51:13;;;;;;;5.60;2.10;;;7.40;99.90;;;;;;5008157;28;20057;-66
2023/04/13 08:53:39;;;;;;;4.65;2.15;;;7.40;99.90;;;;;;5029808;28;20034;-66
2023/04/13 08:56:09;;;;;;;6.22;1.98;;;7.30;99.90;;;;;;5008074;28;20037;-64
2023/04/13 08:58:36;;;;;;;3.65;1.88;;;7.10;99.90;;;;;;5026998;28;20128;-66
2023/04/13 09:01:04;;;;;;;4.55;1.90;;;7.10;99.90;;;;;;5027645;28;20436;-67
2023/04/13 09:03:35;;;;;;;5.75;2.20;;;7.20;99.90;;;;;;5014938;28;20096;-66
2023/04/13 09:06:08;;;;;;;3.42;1.70;;;7.30;99.90;;;;;;5007700;28;20814;-67
2023/04/13 09:08:35;;;;;;;3.75;1.70;;;7.30;99.90;;;;;;5015486;28;20080;-65
2023/04/13 09:11:01;;;;;;;5.82;2.00;;;7.50;99.90;;;;;;5032680;28;20045;-67
2023/04/13 09:13:28;;;;;;;5.22;1.85;;;7.50;99.90;;;;;;5006878;28;20041;-65
2023/04/13 09:15:53;;;;;;;2.30;1.20;;;7.50;99.90;;;;;;5030889;28;20049;-67
2023/04/13 09:18:19;;;;;;;3.42;1.20;;;7.30;99.90;;;;;;5013730;28;20055;-66
2023/04/13 09:20:58;;;;;;;4.22;1.10;;;7.30;99.90;;;;;;5023743;28;20385;-67
2023/04/13 09:23:24;;;;;;;1.50;0.82;;;7.20;99.90;;;;;;5003760;28;20037;-66
2023/04/13 09:26:03;;;;;;;3.10;1.30;;;7.10;99.90;;;;;;5012803;28;20363;-66
2023/04/13 09:28:29;;;;;;;5.47;1.40;;;6.90;99.90;;;;;;5012895;28;20081;-67
2023/04/13 09:31:02;;;;;;;6.70;1.55;;;6.90;99.90;;;;;;5006018;28;20061;-66
2023/04/13 09:33:32;;;;;;;2.45;1.48;;;7.00;99.90;;;;;;5011079;28;20034;-65
2023/04/13 09:36:08;;;;;;;4.32;1.60;;;7.10;99.90;;;;;;5022295;28;20144;-66
2023/04/13 09:38:33;;;;;;;6.18;2.15;;;7.20;99.90;;;;;;5022247;28;20054;-66
2023/04/13 09:41:00;;;;;;;4.57;1.85;;;7.30;99.90;;;;;;5003938;28;20033;-64
2023/04/13 09:43:37;;;;;;;2.83;1.30;;;7.60;99.90;;;;;;4988810;28;20111;-66
2023/04/13 09:46:03;;;;;;;3.53;1.48;;;7.70;99.90;;;;;;5002596;28;20469;-66
2023/04/13 09:48:30;;;;;;;2.65;1.55;;;7.40;99.90;;;;;;5027426;28;20464;-65
2023/04/13 09:51:00;;;;;;;3.40;1.38;;;7.30;99.90;;;;;;5017681;28;20038;-65
2023/04/13 09:53:27;;;;;;;4.28;1.50;;;7.30;99.90;;;;;;5023608;28;20037;-66
2023/04/13 09:55:59;;;;;;;3.80;1.50;;;7.40;99.90;;;;;;5026910;28;20064;-65
2023/04/13 09:58:25;;;;;;;2.40;1.67;;;7.60;99.90;;;;;;5004861;28;20149;-64
2023/04/13 10:00:52;;;;;;;3.33;1.60;;;7.90;99.90;;;;;;5030648;28;20045;-64
2023/04/13 10:03:19;;;;;;;2.60;1.70;;;8.10;99.90;;;;;;5021030;28;20042;-66
2023/04/13 10:05:46;;;;;;;8.05;1.98;;;8.10;99.90;;;;;;5021776;28;20117;-64
2023/04/13 10:08:12;;;;;;;3.08;2.15;;;8.40;99.90;;;;;;5009368;28;20042;-65
2023/04/13 10:10:38;;;;;;;4.72;1.40;;;8.40;99.90;;;;;;5031538;28;20045;-65
2023/04/13 10:13:27;;;;;;;5.80;1.88;;;8.50;99.90;;;;;;5029301;28;20030;-66
2023/04/13 10:16:18;;;;;;;8.15;1.67;;;8.80;99.90;;;;;;5028332;28;20049;-63
2023/04/13 10:19:00;;;;;;;3.50;1.27;;;8.90;99.90;;;;;;4986145;28;20041;-65
2023/04/13 10:21:38;;;;;;;3.13;1.40;;;8.60;99.90;;;;;;5009593;28;20367;-65
2023/04/13 10:24:08;;;;;;;2.80;1.45;;;8.60;99.90;;;;;;5022604;28;20049;-66
2023/04/13 10:26:35;;;;;;;;;;;8.40;99.90;;;;;;5022557;28;20041;-65
2023/04/13 10:29:02;;;;;;;5.07;1.42;;;8.30;99.90;;;;;;5018408;28;19921;-65
2023/04/13 10:31:39;;;;;;;2.72;0.70;;;7.90;99.90;;;;;;5026747;28;20045;-65
2023/04/13 10:34:05;;;;;;;3.05;0.98;;;7.60;99.90;;;;;;5025784;28;20045;-65
2023/04/13 10:36:40;;;;;;;4.38;1.02;;;7.60;99.90;;;;;;5006424;28;20049;-66
2023/04/13 10:39:07;;;;;;;3.97;1.27;;;7.90;99.90;;;;;;5017841;28;20045;-65
2023/04/13 10:41:33;;;;;;;3.90;1.23;;;8.20;99.90;;;;;;5014286;28;20056;-65
2023/04/13 10:44:07;;;;;;;8.32;1.90;;;8.10;99.90;;;;;;5012690;28;20033;-65
2023/04/13 10:46:34;;;;;;;6.57;1.63;;;7.80;99.90;;;;;;5021537;28;20099;-67
2023/04/13 10:49:01;;;;;;;3.08;1.73;;;7.70;99.90;;;;;;5004958;28;20636;-68
2023/04/13 10:51:43;;;;;;;6.55;1.92;;;7.80;99.90;;;;;;5009449;28;20866;-67
2023/04/13 10:54:11;;;;;;;5.95;1.70;;;7.90;99.90;;;;;;4991144;28;20052;-68
2023/04/13 10:56:37;;;;;;;4.03;1.65;;;8.00;99.90;;;;;;5013087;28;20058;-68
2023/04/13 10:59:05;;;;;;;4.35;1.20;;;7.90;99.90;;;;;;5008305;28;20064;-68
2023/04/13 11:01:32;;;;;;;5.72;1.38;;;7.80;99.90;;;;;;5009900;28;20049;-67
2023/04/13 11:04:05;;;;;;;2.58;1.00;;;7.60;99.90;;;;;;5011334;28;20037;-64
2023/04/13 11:06:38;;;;;;;3.00;0.88;;;7.50;99.90;;;;;;5010078;28;20412;-67
2023/04/13 11:09:05;;;;;;;4.35;0.90;;;7.50;99.90;;;;;;5010498;28;20087;-64
2023/04/13 11:11:31;;;;;;;3.35;0.85;;;7.70;99.90;;;;;;5023246;28;20393;-66
2023/04/13 11:13:57;;;;;;;1.85;0.90;;;7.80;99.90;;;;;;5011251;28;20588;-66
2023/04/13 11:16:22;;;;;;;2.35;0.77;;;7.90;99.90;;;;;;5014170;28;20124;-67
2023/04/13 11:18:58;;;;;;;4.18;1.25;;;8.00;99.90;;;;;;5009345;28;20033;-67
2023/04/13 11:21:24;;;;;;;2.45;1.20;;;8.20;99.90;;;;;;4992714;28;20046;-64
2023/04/13 11:23:54;;;;;;;3.28;1.17;;;8.30;99.90;;;;;;5010524;28;20052;-67
2023/04/13 11:26:30;;;;;;;4.60;1.63;;;8.50;99.90;;;;;;5031518;28;20052;-67
2023/04/13 11:28:56;;;;;;;6.28;1.85;;;8.50;99.90;;;;;;5009611;28;20057;-68
2023/04/13 11:31:34;;;;;;;3.72;1.55;;;8.50;99.90;;;;;;4993076;28;20450;-68
2023/04/13 11:34:00;;;;;;;4.47;1.70;;;8.60;99.90;;;;;;5009300;28;20034;-65
2023/04/13 11:36:29;;;;;;;5.88;2.15;;;8.70;99.90;;;;;;4986073;28;20389;-67
2023/04/13 11:38:54;;;;;;;8.13;2.13;;;8.70;99.90;;;;;;5009448;28;20029;-68
2023/04/13 11:41:20;;;;;;;7.40;1.83;;;8.60;99.90;;;;;;5010567;28;21043;-65
2023/04/13 11:43:47;;;;;;;5.35;1.73;;;8.50;99.90;;;;;;5009705;28;20037;-67
2023/04/13 11:46:14;;;;;;;9.13;1.98;;;8.40;99.90;;;;;;5004247;28;20057;-67
2023/04/13 11:48:41;;;;;;;7.28;2.08;;;8.20;99.90;;;;;;5014558;28;20132;-67
2023/04/13 11:51:07;;;;;;;8.20;1.92;;;8.50;99.90;;;;;;5011702;28;20088;-67
2023/04/13 11:53:35;;;;;;;8.88;2.50;;;8.30;99.90;;;;;;5014197;28;20053;-66
2023/04/13 11:56:01;;;;;;;5.18;2.42;;;8.40;99.90;;;;;;5013722;28;20080;-66
2023/04/13 11:58:27;;;;;;;6.93;2.17;;;8.40;99.90;;;;;;5032137;28;20057;-65
2023/04/13 12:00:54;;;;;;;7.53;2.00;;;8.30;99.90;;;;;;5013402;28;20752;-65
2023/04/13 12:03:19;;;;;;;8.48;2.15;;;8.30;99.90;;;;;;5013218;28;20057;-65
2023/04/13 12:05:46;;;;;;;8.80;1.65;;;8.10;99.90;;;;;;5012259;28;20034;-65
2023/04/13 12:08:21;;;;;;;5.68;1.98;;;8.30;99.90;;;;;;5011404;28;20033;-66
2023/04/13 12:11:04;;;;;;;10.38;2.05;;;8.30;99.90;;;;;;5031293;28;20041;-65
2023/04/13 12:13:40;;;;;;;11.32;1.90;;;8.30;99.90;;;;;;5031307;28;20041;-65
2023/04/13 12:16:06;;;;;;;9.18;2.03;;;8.30;99.90;;;;;;5029851;28;20077;-66
2023/04/13 12:18:52;;;;;;;7.43;1.73;;;8.30;99.90;;;;;;5031796;28;20052;-66
2023/04/13 12:21:18;;;;;;;6.13;1.90;;;8.10;99.90;;;;;;5030040;28;21859;-66
2023/04/13 12:23:54;;;;;;;6.20;1.58;;;8.10;99.90;;;;;;5016912;28;20045;-65
2023/04/13 12:26:23;;;;;;;10.25;2.05;;;8.50;99.90;;;;;;5014890;28;20108;-65
2023/04/13 12:28:54;;;;;;;7.57;1.73;;;8.70;99.90;;;;;;5015616;28;20044;-65
2023/04/13 12:31:20;;;;;;;8.57;1.70;;;8.70;99.90;;;;;;5014656;28;20049;-65
2023/04/13 12:33:45;;;;;;;7.05;1.33;;;8.70;99.90;;;;;;5012627;28;20037;-67
2023/04/13 12:36:11;;;;;;;6.45;1.45;;;8.60;99.90;;;;;;5029911;28;20094;-66
2023/04/13 12:38:37;;;;;;;6.50;1.50;;;8.60;99.90;;;;;;5014022;28;20115;-66
2023/04/13 12:41:02;;;;;;;6.82;1.20;;;8.60;99.90;;;;;;5027730;28;20041;-66
2023/04/13 12:43:28;;;;;;;6.78;1.20;;;8.60;99.90;;;;;;5010839;28;20044;-64
2023/04/13 12:45:54;;;;;;;6.00;1.25;;;8.50;99.90;;;;;;5016023;28;20678;-67
2023/04/13 12:48:21;;;;;;;14.98;2.00;;;8.30;99.90;;;;;;5010399;28;20053;-65
2023/04/13 12:50:47;;;;;;;7.35;1.45;;;8.30;99.90;;;;;;5030249;28;20037;-65
2023/04/13 12:53:13;;;;;;;6.82;1.30;;;8.20;99.90;;;;;;5006219;28;20394;-66
2023/04/13 12:55:39;;;;;;;9.30;1.52;;;8.20;99.90;;;;;;5025433;28;20041;-65
2023/04/13 12:58:05;;;;;;;5.38;1.35;;;8.30;99.90;;;;;;5008848;28;20084;-65
2023/04/13 13:00:30;;;;;;;7.75;1.60;;;8.50;99.90;;;;;;5032068;28;20077;-66